createdAt,value
2023-01-02T00:02:41.514Z,81.97
2023-01-02T00:07:45.512Z,82.55
2023-01-02T00:12:40.841Z,83.07
2023-01-02T00:17:38.889Z,83.78
2023-01-02T00:22:34.129Z,83.82
2023-01-02T00:27:31.821Z,83.85
2023-01-02T00:32:30.098Z,83.27
2023-01-02T00:37:35.754Z,83.70
2023-01-02T00:42:29.330Z,84.09
2023-01-02T00:47:26.829Z,84.19
2023-01-02T00:52:22.253Z,83.78
2023-01-02T00:57:16.011Z,83.54
2023-01-02T01:02:10.290Z,83.68
2023-01-02T01:07:05.563Z,83.81
2023-01-02T01:12:01.129Z,84.43
2023-01-02T01:16:59.202Z,84.79
2023-01-02T01:21:54.309Z,85.29
2023-01-02T01:26:56.741Z,85.20
2023-01-02T01:31:50.331Z,85.36
2023-01-02T01:36:44.079Z,85.30
2023-01-02T01:41:37.989Z,84.37
2023-01-02T01:46:42.262Z,84.07
2023-01-02T01:51:38.910Z,83.97
2023-01-02T01:56:35.139Z,84.47
2023-01-02T02:01:36.265Z,83.70
2023-01-02T02:06:36.486Z,83.65
2023-01-02T02:11:31.873Z,83.49
2023-01-02T02:16:35.492Z,84.62
2023-01-02T02:21:58.868Z,83.98
2023-01-02T02:27:03.920Z,83.05
2023-01-02T02:32:15.114Z,83.34
2023-01-02T02:37:16.375Z,82.00
2023-01-02T02:42:19.731Z,82.21
2023-01-02T02:47:21.586Z,81.87
2023-01-02T02:52:28.154Z,82.75
2023-01-02T02:57:39.971Z,83.34
2023-01-02T03:02:36.542Z,84.34
2023-01-02T03:07:40.511Z,85.20
2023-01-02T03:12:45.837Z,84.22
2023-01-02T03:17:54.803Z,83.81
2023-01-02T03:22:54.327Z,83.25
2023-01-02T03:27:50.863Z,83.48
2023-01-02T03:32:50.891Z,83.54
2023-01-02T03:37:49.981Z,84.05
2023-01-02T03:42:48.260Z,83.68
2023-01-02T03:47:51.414Z,83.80
2023-01-02T03:52:44.765Z,82.91
2023-01-02T03:57:55.196Z,82.55
2023-01-02T04:02:58.018Z,82.34
2023-01-02T04:07:58.311Z,82.44
2023-01-02T04:12:55.090Z,82.89
2023-01-02T04:17:56.173Z,83.78
2023-01-02T04:22:56.422Z,84.15
2023-01-02T04:27:53.159Z,84.70
2023-01-02T04:32:47.805Z,85.26
2023-01-02T04:37:44.553Z,85.80
2023-01-02T04:42:39.051Z,85.97
2023-01-02T04:47:32.419Z,86.50
2023-01-02T04:52:25.694Z,86.60
2023-01-02T04:57:20.482Z,86.75
2023-01-02T05:02:13.928Z,86.24
2023-01-02T05:07:09.242Z,86.23
2023-01-02T05:12:02.587Z,87.00
2023-01-02T05:16:57.360Z,87.91
2023-01-02T05:22:10.407Z,88.03
2023-01-02T05:27:05.565Z,88.32
2023-01-02T05:32:01.269Z,88.31
2023-01-02T05:36:54.746Z,88.76
2023-01-02T05:41:48.147Z,89.12
2023-01-02T05:46:41.528Z,89.29
2023-01-02T05:51:36.794Z,89.22
2023-01-02T05:56:31.633Z,89.95
2023-01-02T06:01:27.159Z,89.69
2023-01-02T06:06:22.874Z,89.45
2023-01-02T06:11:17.514Z,90.01
2023-01-02T06:16:12.793Z,90.50
2023-01-02T06:21:08.158Z,91.80
2023-01-02T06:26:05.292Z,91.65
2023-01-02T06:31:03.284Z,91.35
2023-01-02T06:36:00.468Z,91.49
2023-01-02T06:40:54.978Z,91.72
2023-01-02T06:45:48.411Z,92.60
2023-01-02T06:50:43.162Z,92.05
2023-01-02T06:55:36.642Z,90.97
2023-01-02T07:00:29.961Z,91.20
2023-01-02T07:05:24.943Z,90.21
2023-01-02T07:10:33.368Z,91.17
2023-01-02T07:15:26.595Z,90.42
2023-01-02T07:20:20.030Z,89.18
2023-01-02T07:25:18.453Z,88.04
2023-01-02T07:30:17.403Z,88.30
2023-01-02T07:35:12.241Z,87.35
2023-01-02T07:40:06.239Z,87.22
2023-01-02T07:44:59.521Z,87.91
2023-01-02T07:49:54.270Z,87.34
2023-01-02T07:54:47.791Z,86.99
2023-01-02T07:59:41.035Z,86.38
2023-01-02T08:04:34.316Z,86.86
2023-01-02T08:09:29.019Z,86.58
2023-01-02T08:14:25.520Z,86.58
2023-01-02T08:19:23.264Z,86.44
2023-01-02T08:24:19.002Z,84.00
2023-01-02T08:29:13.870Z,82.46
2023-01-02T08:34:07.435Z,80.95
2023-01-02T08:39:00.913Z,79.90
2023-01-02T08:43:54.499Z,79.21
2023-01-02T08:48:51.599Z,78.24
2023-01-02T08:53:48.489Z,78.71
2023-01-02T08:58:41.929Z,78.24
2023-01-02T09:03:38.387Z,77.10
2023-01-02T09:08:35.704Z,76.45
2023-01-02T09:13:29.085Z,72.63
2023-01-02T09:18:27.359Z,68.54
2023-01-02T09:23:24.992Z,64.16
2023-01-02T09:28:27.048Z,63.07
2023-01-02T09:33:22.985Z,61.19
2023-01-02T09:38:21.925Z,57.55
2023-01-02T09:43:28.904Z,54.48
2023-01-02T09:48:35.212Z,52.79
2023-01-02T09:58:47.827Z,53.68
2023-01-02T10:03:53.582Z,55.58
2023-01-02T10:09:00.140Z,55.28
2023-01-02T10:19:21.097Z,54.36
2023-01-02T10:24:19.188Z,55.79
2023-01-02T10:29:36.030Z,54.91
2023-01-02T10:36:04.488Z,52.37
2023-01-02T10:50:26.478Z,49.81
2023-01-02T11:02:13.086Z,49.63
2023-01-02T11:14:45.718Z,48.75
2023-01-02T11:21:08.295Z,49.90
2023-01-02T11:27:19.142Z,48.54
2023-01-02T11:33:34.490Z,50.09
2023-01-02T11:45:58.408Z,47.70
2023-01-02T11:51:27.639Z,49.26
2023-01-02T11:56:56.382Z,51.75
2023-01-02T12:02:39.494Z,54.10
2023-01-02T12:22:43.269Z,56.67
2023-01-02T12:28:24.268Z,58.73
2023-01-02T12:33:58.579Z,58.06
2023-01-02T12:39:38.401Z,58.60
2023-01-02T12:45:06.565Z,60.10
2023-01-02T12:50:52.452Z,59.50
2023-01-02T12:56:21.941Z,59.87
2023-01-02T13:01:40.507Z,60.52
2023-01-02T13:13:21.952Z,61.68
2023-01-02T13:39:01.076Z,62.94
2023-01-02T13:43:58.006Z,63.04
2023-01-02T13:48:54.245Z,62.88
2023-01-02T13:53:49.531Z,63.47
2023-01-02T13:58:59.496Z,63.61
2023-01-02T14:04:29.566Z,63.38
2023-01-02T14:09:24.528Z,63.58
2023-01-02T14:14:23.944Z,64.13
2023-01-02T14:19:26.468Z,64.91
2023-01-02T14:24:32.892Z,65.00
2023-01-02T14:29:28.568Z,66.10
2023-01-02T14:34:27.291Z,66.46
2023-01-02T14:39:25.684Z,67.46
2023-01-02T14:44:19.361Z,68.09
2023-01-02T14:49:25.814Z,68.55
2023-01-02T14:54:22.979Z,69.36
2023-01-02T14:59:30.729Z,70.23
2023-01-02T15:04:41.293Z,70.19
2023-01-02T15:09:38.362Z,71.14
2023-01-02T15:14:35.397Z,72.13
2023-01-02T15:19:33.785Z,73.70
2023-01-02T15:24:30.479Z,74.36
2023-01-02T15:29:29.109Z,75.55
2023-01-02T15:34:32.054Z,76.52
2023-01-02T15:39:34.378Z,77.27
2023-01-02T15:44:46.835Z,77.59
2023-01-02T15:49:43.980Z,78.30
2023-01-02T15:54:38.279Z,78.28
2023-01-02T15:59:39.599Z,78.81
2023-01-02T16:04:34.530Z,79.23
2023-01-02T16:09:35.165Z,79.48
2023-01-02T16:14:41.903Z,80.55
2023-01-02T16:19:40.912Z,81.14
2023-01-02T16:24:43.398Z,81.60
2023-01-02T16:29:44.522Z,82.12
2023-01-02T16:34:44.007Z,82.47
2023-01-02T16:39:49.970Z,82.39
2023-01-02T16:44:43.457Z,82.43
2023-01-02T16:49:38.883Z,83.39
2023-01-02T16:54:32.212Z,83.08
2023-01-02T16:59:26.984Z,84.10
2023-01-02T17:04:23.137Z,83.96
2023-01-02T17:09:16.766Z,84.48
2023-01-02T17:14:10.920Z,84.30
2023-01-02T17:19:05.944Z,85.11
2023-01-02T17:23:59.286Z,85.77
2023-01-02T17:28:54.601Z,86.58
2023-01-02T17:33:57.045Z,86.78
2023-01-02T17:38:55.580Z,86.81
2023-01-02T17:44:01.981Z,87.82
2023-01-02T17:48:56.964Z,85.71
2023-01-02T17:53:54.267Z,87.43
2023-01-02T17:59:07.340Z,88.98
2023-01-02T18:04:02.196Z,86.75
2023-01-02T18:08:56.881Z,86.20
2023-01-02T18:13:54.258Z,86.21
2023-01-02T18:18:48.237Z,86.44
2023-01-02T18:23:44.473Z,86.74
2023-01-02T18:28:43.154Z,86.88
2023-01-02T18:33:43.073Z,87.94
2023-01-02T18:38:37.922Z,87.95
2023-01-02T18:43:35.929Z,88.09
2023-01-02T18:48:32.528Z,88.07
2023-01-02T18:53:31.369Z,88.68
2023-01-02T18:58:44.209Z,89.81
2023-01-02T19:03:39.154Z,89.18
2023-01-02T19:08:37.678Z,89.38
2023-01-02T19:13:36.649Z,89.14
2023-01-02T19:18:35.607Z,89.16
2023-01-02T19:23:33.526Z,89.37
2023-01-02T19:28:32.059Z,89.49
2023-01-02T19:33:39.598Z,89.94
2023-01-02T19:38:37.274Z,89.95
2023-01-02T19:43:30.529Z,90.12
2023-01-02T19:48:23.819Z,90.69
2023-01-02T19:53:21.298Z,91.21
2023-01-02T19:58:16.126Z,90.60
2023-01-02T20:03:16.836Z,91.15
2023-01-02T20:08:10.603Z,91.19
2023-01-02T20:13:04.083Z,91.26
2023-01-02T20:18:01.422Z,91.82
2023-01-02T20:22:58.392Z,91.67
2023-01-02T20:27:52.364Z,91.85
2023-01-02T20:32:48.881Z,92.15
2023-01-02T20:37:47.746Z,91.82
2023-01-02T20:42:41.149Z,92.13
2023-01-02T20:47:35.615Z,91.97
2023-01-02T20:52:30.113Z,91.81
2023-01-02T20:57:24.741Z,91.92
2023-01-02T21:02:19.840Z,91.91
2023-01-02T21:07:13.244Z,92.03
2023-01-02T21:12:26.819Z,91.85
2023-01-02T21:17:24.607Z,92.03
2023-01-02T21:22:17.929Z,92.08
2023-01-02T21:27:13.436Z,92.26
2023-01-02T21:32:07.204Z,92.37
2023-01-02T21:37:01.902Z,92.76
2023-01-02T21:42:12.480Z,92.71
2023-01-02T21:47:06.170Z,92.53
2023-01-02T21:52:00.291Z,92.72
2023-01-02T21:56:55.070Z,92.79
2023-01-02T22:01:48.514Z,92.91
2023-01-02T22:07:20.902Z,93.23
2023-01-02T22:11:58.445Z,93.17
2023-01-02T22:16:52.751Z,93.47
2023-01-02T22:21:45.948Z,93.40
2023-01-02T22:26:41.847Z,93.51
2023-01-02T22:31:36.592Z,93.84
2023-01-02T22:36:31.643Z,93.70
2023-01-02T22:41:24.963Z,94.17
2023-01-02T22:46:30.984Z,94.50
2023-01-02T22:51:49.726Z,94.27
2023-01-02T22:56:39.082Z,93.56
2023-01-02T23:01:34.613Z,93.12
2023-01-02T23:06:29.293Z,93.21
2023-01-02T23:11:23.213Z,92.72
2023-01-02T23:16:34.757Z,93.38
2023-01-02T23:21:31.488Z,93.31
2023-01-02T23:26:28.754Z,93.20
2023-01-02T23:31:22.072Z,93.74
2023-01-02T23:36:15.264Z,94.08
2023-01-02T23:41:10.024Z,94.25
2023-01-02T23:46:03.257Z,94.36
2023-01-02T23:50:59.894Z,94.50
2023-01-02T23:55:53.138Z,94.42
